GIA3601 OEMA-WIEE
Flight info
| Callsign | GIA3601 |
|---|---|
| Flight time | N/A |
| Altitude | 37000 |
| Route | MEDRO M872 BDB Y214 RAPMA DCT ULONO DCT DAPOL L692 GISKA N569 LOTAV M300 VASTU P895 BIKOK N640 KAT P570 NIXUL DCT ELDEL |
| Aircraft | B77W/H-SDE1E2E3FGHIJ4J5M1RWXY/LB1D1 |
Departure
| Time | 2026-04-24 15:02 |
|---|---|
| Airport | Prince Mohammad Bin Abdulaziz Airport (OEMA) |
Arrival
| Time | N/A |
|---|---|
| Airport | Minangkabau International Airport (WIEE) |
| Time | Latitude | Longitude | Altitude | Speed | Heading |
|---|---|---|---|---|---|
| 2026-04-24 14:31 | 24.55187 | 39.71346 | 2075 ft | 0 kts | 78° |
| 2026-04-24 14:50 | 24.55185 | 39.71334 | 2071 ft | 4 kts | 91° |
| 2026-04-24 14:50 | 24.55190 | 39.71311 | 2075 ft | 4 kts | 118° |
| 2026-04-24 14:51 | 24.55201 | 39.71285 | 2073 ft | 3 kts | 104° |
| 2026-04-24 14:51 | 24.55208 | 39.71260 | 2075 ft | 4 kts | 124° |
| 2026-04-24 14:51 | 24.55225 | 39.71241 | 2075 ft | 4 kts | 150° |
| 2026-04-24 14:51 | 24.55248 | 39.71230 | 2072 ft | 4 kts | 166° |
| 2026-04-24 14:52 | 24.55263 | 39.71227 | 2075 ft | 6 kts | 168° |
| 2026-04-24 14:55 | 24.55234 | 39.71233 | 2073 ft | 10 kts | 168° |
| 2026-04-24 14:55 | 24.55149 | 39.71253 | 2073 ft | 14 kts | 168° |
| 2026-04-24 14:55 | 24.55052 | 39.71272 | 2074 ft | 14 kts | 170° |
| 2026-04-24 14:56 | 24.54955 | 39.71292 | 2069 ft | 14 kts | 169° |
| 2026-04-24 14:56 | 24.54866 | 39.71293 | 2070 ft | 8 kts | 214° |
| 2026-04-24 14:56 | 24.54848 | 39.71238 | 2073 ft | 8 kts | 261° |
| 2026-04-24 14:56 | 24.54839 | 39.71178 | 2075 ft | 8 kts | 261° |
| 2026-04-24 14:57 | 24.54810 | 39.71130 | 2072 ft | 8 kts | 204° |
| 2026-04-24 14:57 | 24.54754 | 39.71136 | 2072 ft | 8 kts | 165° |
| 2026-04-24 14:57 | 24.54697 | 39.71151 | 2072 ft | 9 kts | 168° |
| 2026-04-24 14:57 | 24.54632 | 39.71165 | 2071 ft | 10 kts | 169° |
| 2026-04-24 14:58 | 24.54566 | 39.71179 | 2072 ft | 10 kts | 169° |
| 2026-04-24 14:58 | 24.54500 | 39.71192 | 2072 ft | 10 kts | 169° |
| 2026-04-24 14:58 | 24.54436 | 39.71205 | 2072 ft | 10 kts | 169° |
| 2026-04-24 14:58 | 24.54364 | 39.71219 | 2072 ft | 11 kts | 169° |
| 2026-04-24 14:59 | 24.54284 | 39.71237 | 2072 ft | 13 kts | 168° |
| 2026-04-24 14:59 | 24.54184 | 39.71260 | 2071 ft | 16 kts | 168° |
| 2026-04-24 14:59 | 24.54073 | 39.71284 | 2071 ft | 16 kts | 169° |
| 2026-04-24 14:59 | 24.53962 | 39.71307 | 2074 ft | 16 kts | 169° |
| 2026-04-24 15:00 | 24.53857 | 39.71315 | 2071 ft | 14 kts | 202° |
| 2026-04-24 15:00 | 24.53821 | 39.71218 | 2074 ft | 14 kts | 260° |
| 2026-04-24 15:00 | 24.53819 | 39.71158 | 2072 ft | 7 kts | 291° |
| 2026-04-24 15:00 | 24.53845 | 39.71142 | 2072 ft | 4 kts | 347° |
| 2026-04-24 15:01 | 24.53873 | 39.71135 | 2071 ft | 4 kts | 346° |
| 2026-04-24 15:01 | 24.53904 | 39.71129 | 2073 ft | 10 kts | 349° |
| 2026-04-24 15:01 | 24.54208 | 39.71063 | 2073 ft | 82 kts | 349° |
| 2026-04-24 15:01 | 24.54996 | 39.70898 | 2072 ft | 146 kts | 348° |
| 2026-04-24 15:02 | 24.56167 | 39.70630 | 2125 ft | 190 kts | 347° |
| 2026-04-24 15:02 | 24.57493 | 39.70387 | 2609 ft | 199 kts | 349° |
| 2026-04-24 15:02 | 24.58875 | 39.70146 | 3263 ft | 203 kts | 346° |
| 2026-04-24 15:02 | 24.60074 | 39.69865 | 3877 ft | 203 kts | 345° |
| 2026-04-24 15:03 | 24.61010 | 39.69640 | 4236 ft | 212 kts | 345° |
| 2026-04-24 15:03 | 24.63079 | 39.69173 | 4615 ft | 247 kts | 346° |
| 2026-04-24 15:03 | 24.64849 | 39.68791 | 5007 ft | 267 kts | 346° |
| 2026-04-24 15:03 | 24.66713 | 39.68396 | 5732 ft | 277 kts | 346° |
| 2026-04-24 15:04 | 24.68627 | 39.67992 | 6484 ft | 284 kts | 346° |
| 2026-04-24 15:04 | 24.70598 | 39.67573 | 7178 ft | 291 kts | 345° |
| 2026-04-24 15:04 | 24.72596 | 39.67148 | 7966 ft | 294 kts | 345° |
| 2026-04-24 15:04 | 24.74618 | 39.66718 | 8776 ft | 298 kts | 344° |
| 2026-04-24 15:05 | 24.76651 | 39.66287 | 9566 ft | 298 kts | 344° |
| 2026-04-24 15:05 | 24.78719 | 39.65844 | 9984 ft | 303 kts | 344° |
| 2026-04-24 15:05 | 24.80797 | 39.65402 | 10039 ft | 307 kts | 346° |
| 2026-04-24 15:05 | 24.82948 | 39.65439 | 10031 ft | 318 kts | 11° |
| 2026-04-24 15:06 | 24.84960 | 39.66523 | 10090 ft | 335 kts | 37° |
| 2026-04-24 15:06 | 24.86540 | 39.68528 | 10288 ft | 362 kts | 61° |
| 2026-04-24 15:06 | 24.87404 | 39.71217 | 10459 ft | 385 kts | 84° |
| 2026-04-24 15:06 | 24.87334 | 39.74187 | 10952 ft | 393 kts | 104° |
| 2026-04-24 15:07 | 24.86538 | 39.77064 | 11692 ft | 394 kts | 117° |
| 2026-04-24 15:07 | 24.85332 | 39.79769 | 12685 ft | 393 kts | 123° |
| 2026-04-24 15:07 | 24.83996 | 39.82390 | 13744 ft | 393 kts | 125° |
| 2026-04-24 15:07 | 24.82623 | 39.85017 | 14583 ft | 400 kts | 125° |
| 2026-04-24 15:08 | 24.81233 | 39.87713 | 14957 ft | 409 kts | 125° |
| 2026-04-24 15:08 | 24.79852 | 39.90466 | 15755 ft | 414 kts | 124° |
| 2026-04-24 15:08 | 24.78474 | 39.93278 | 16647 ft | 419 kts | 124° |
| 2026-04-24 15:08 | 24.77100 | 39.96122 | 17486 ft | 425 kts | 124° |
| 2026-04-24 15:09 | 24.75708 | 39.99025 | 18265 ft | 432 kts | 124° |
| 2026-04-24 15:09 | 24.74305 | 40.01964 | 18940 ft | 438 kts | 124° |
| 2026-04-24 15:09 | 24.72883 | 40.04949 | 19652 ft | 442 kts | 124° |
| 2026-04-24 15:09 | 24.71447 | 40.07961 | 20378 ft | 447 kts | 124° |
| 2026-04-24 15:10 | 24.69998 | 40.11002 | 21089 ft | 452 kts | 123° |
| 2026-04-24 15:10 | 24.68532 | 40.14075 | 21788 ft | 456 kts | 123° |
| 2026-04-24 15:10 | 24.67046 | 40.17182 | 22452 ft | 462 kts | 123° |
| 2026-04-24 15:10 | 24.65541 | 40.20327 | 23079 ft | 467 kts | 123° |
| 2026-04-24 15:11 | 24.64023 | 40.23497 | 23674 ft | 472 kts | 123° |
| 2026-04-24 15:11 | 24.62486 | 40.26704 | 24221 ft | 476 kts | 123° |
| 2026-04-24 15:11 | 24.60941 | 40.29928 | 24752 ft | 480 kts | 123° |
| 2026-04-24 15:11 | 24.59381 | 40.33181 | 25304 ft | 483 kts | 123° |
| 2026-04-24 15:12 | 24.57804 | 40.36464 | 25850 ft | 487 kts | 123° |
| 2026-04-24 15:12 | 24.54619 | 40.43093 | 26936 ft | 494 kts | 123° |
| 2026-04-24 15:12 | 24.53007 | 40.46443 | 27444 ft | 498 kts | 123° |
| 2026-04-24 15:13 | 24.51385 | 40.49815 | 27960 ft | 501 kts | 123° |
| 2026-04-24 15:13 | 24.49771 | 40.53165 | 28468 ft | 504 kts | 123° |
| 2026-04-24 15:13 | 24.48140 | 40.56589 | 28969 ft | 508 kts | 121° |
| 2026-04-24 15:13 | 24.46761 | 40.60193 | 29435 ft | 517 kts | 114° |
| 2026-04-24 15:14 | 24.45719 | 40.64000 | 29902 ft | 524 kts | 109° |
| 2026-04-24 15:14 | 24.45005 | 40.67941 | 30285 ft | 531 kts | 102° |
| 2026-04-24 15:14 | 24.44594 | 40.71972 | 30736 ft | 532 kts | 100° |
| 2026-04-24 15:14 | 24.44236 | 40.76020 | 31202 ft | 532 kts | 100° |
| 2026-04-24 15:15 | 24.43882 | 40.80060 | 31653 ft | 532 kts | 101° |
| 2026-04-24 15:15 | 24.43508 | 40.84103 | 32090 ft | 532 kts | 101° |
| 2026-04-24 15:15 | 24.43114 | 40.88129 | 32543 ft | 532 kts | 101° |
| 2026-04-24 15:15 | 24.42705 | 40.92159 | 33001 ft | 531 kts | 102° |
| 2026-04-24 15:16 | 24.42292 | 40.96176 | 33468 ft | 529 kts | 102° |
| 2026-04-24 15:16 | 24.41878 | 41.00191 | 33952 ft | 528 kts | 101° |
| 2026-04-24 15:16 | 24.41467 | 41.04192 | 34321 ft | 528 kts | 101° |
| 2026-04-24 15:16 | 24.41054 | 41.08204 | 34592 ft | 530 kts | 101° |
| 2026-04-24 15:17 | 24.40634 | 41.12229 | 34856 ft | 533 kts | 101° |
| 2026-04-24 15:17 | 24.40208 | 41.16268 | 35148 ft | 534 kts | 102° |
| 2026-04-24 15:17 | 24.39780 | 41.20312 | 35461 ft | 534 kts | 101° |
| 2026-04-24 15:17 | 24.39350 | 41.24365 | 35773 ft | 535 kts | 101° |
| 2026-04-24 15:18 | 24.38920 | 41.28421 | 36065 ft | 536 kts | 101° |
| 2026-04-24 15:18 | 24.38488 | 41.32487 | 36359 ft | 537 kts | 101° |
| 2026-04-24 15:18 | 24.38201 | 41.35188 | 36560 ft | 537 kts | 101° |
| 2026-04-24 15:18 | 24.37619 | 41.40639 | 36854 ft | 540 kts | 101° |
| 2026-04-24 15:19 | 24.36886 | 41.47471 | 36922 ft | 543 kts | 101° |
| 2026-04-24 15:19 | 24.36011 | 41.55647 | 36915 ft | 535 kts | 101° |
| 2026-04-24 15:20 | 24.35139 | 41.63718 | 36924 ft | 532 kts | 101° |
| 2026-04-24 15:20 | 24.34263 | 41.71759 | 36937 ft | 530 kts | 101° |
| 2026-04-24 15:21 | 24.33383 | 41.79787 | 36937 ft | 530 kts | 102° |
| 2026-04-24 15:21 | 24.31854 | 41.87630 | 36946 ft | 523 kts | 112° |
| 2026-04-24 15:22 | 24.29779 | 41.95287 | 36942 ft | 524 kts | 112° |
| 2026-04-24 15:23 | 24.26669 | 42.06797 | 36947 ft | 527 kts | 111° |
| 2026-04-24 15:23 | 24.23606 | 42.18385 | 36957 ft | 528 kts | 111° |
| 2026-04-24 15:25 | 24.18490 | 42.37670 | 36962 ft | 526 kts | 111° |
| 2026-04-24 15:26 | 24.13371 | 42.56836 | 36976 ft | 523 kts | 111° |
| 2026-04-24 15:27 | 24.07219 | 42.79730 | 36977 ft | 523 kts | 111° |
| 2026-04-24 15:29 | 24.01014 | 43.02694 | 36965 ft | 527 kts | 110° |
| 2026-04-24 15:31 | 23.93676 | 43.29704 | 36952 ft | 531 kts | 110° |
| 2026-04-24 15:33 | 23.85207 | 43.60623 | 36916 ft | 531 kts | 110° |
| 2026-04-24 15:34 | 23.79885 | 43.79922 | 36898 ft | 531 kts | 110° |
| 2026-04-24 15:35 | 23.76485 | 43.99793 | 36894 ft | 538 kts | 96° |
| 2026-04-24 15:36 | 23.75958 | 44.07948 | 36885 ft | 538 kts | 96° |
| 2026-04-24 15:36 | 23.75076 | 44.20163 | 36885 ft | 538 kts | 97° |
| 2026-04-24 15:37 | 23.74453 | 44.28309 | 36886 ft | 538 kts | 97° |
| 2026-04-24 15:37 | 23.73828 | 44.36440 | 36891 ft | 538 kts | 97° |
| 2026-04-24 15:38 | 23.73201 | 44.44582 | 36886 ft | 538 kts | 97° |
| 2026-04-24 15:38 | 23.72571 | 44.52726 | 36887 ft | 538 kts | 97° |
| 2026-04-24 15:39 | 23.71938 | 44.60855 | 36898 ft | 538 kts | 97° |
| 2026-04-24 15:39 | 23.71298 | 44.69006 | 36883 ft | 539 kts | 97° |
| 2026-04-24 15:40 | 23.70656 | 44.77145 | 36897 ft | 539 kts | 97° |
| 2026-04-24 15:40 | 23.70007 | 44.85307 | 36883 ft | 540 kts | 97° |
| 2026-04-24 15:41 | 23.69353 | 44.93464 | 36887 ft | 540 kts | 97° |
| 2026-04-24 15:41 | 23.68691 | 45.01630 | 36882 ft | 540 kts | 97° |
| 2026-04-24 15:42 | 23.68026 | 45.09804 | 36876 ft | 541 kts | 97° |
| 2026-04-24 15:42 | 23.67356 | 45.17985 | 36880 ft | 542 kts | 97° |
| 2026-04-24 15:43 | 23.66681 | 45.26181 | 36882 ft | 542 kts | 97° |
| 2026-04-24 15:43 | 23.66009 | 45.34315 | 36875 ft | 543 kts | 97° |
| 2026-04-24 15:44 | 23.65324 | 45.42573 | 36878 ft | 543 kts | 97° |
| 2026-04-24 15:44 | 23.64638 | 45.50776 | 36870 ft | 543 kts | 97° |
| 2026-04-24 15:45 | 23.63949 | 45.58979 | 36873 ft | 543 kts | 97° |
| 2026-04-24 15:45 | 23.63255 | 45.67177 | 36875 ft | 543 kts | 97° |
| 2026-04-24 15:46 | 23.62557 | 45.75375 | 36869 ft | 543 kts | 97° |
| 2026-04-24 15:46 | 23.61856 | 45.83576 | 36873 ft | 543 kts | 97° |
| 2026-04-24 15:47 | 23.61152 | 45.91766 | 36872 ft | 543 kts | 97° |
| 2026-04-24 15:47 | 23.60441 | 45.99971 | 36875 ft | 543 kts | 97° |
| 2026-04-24 15:48 | 23.59727 | 46.08172 | 36879 ft | 543 kts | 97° |
| 2026-04-24 15:48 | 23.59013 | 46.16315 | 36886 ft | 543 kts | 97° |
| 2026-04-24 15:49 | 23.58291 | 46.24516 | 36882 ft | 543 kts | 97° |
| 2026-04-24 15:49 | 23.57563 | 46.32710 | 36902 ft | 543 kts | 97° |
| 2026-04-24 15:50 | 23.56834 | 46.40891 | 36906 ft | 542 kts | 97° |
| 2026-04-24 15:50 | 23.56100 | 46.49075 | 36907 ft | 542 kts | 97° |
| 2026-04-24 15:51 | 23.55358 | 46.57254 | 36893 ft | 542 kts | 97° |
| 2026-04-24 15:51 | 23.54604 | 46.65428 | 36900 ft | 542 kts | 97° |
| 2026-04-24 15:52 | 23.53896 | 46.73069 | 36905 ft | 541 kts | 97° |
| 2026-04-24 15:52 | 23.53136 | 46.81225 | 36897 ft | 541 kts | 97° |
| 2026-04-24 15:53 | 23.52374 | 46.89365 | 36887 ft | 540 kts | 97° |
| 2026-04-24 15:53 | 23.51608 | 46.97514 | 36891 ft | 540 kts | 97° |
| 2026-04-24 15:54 | 23.50837 | 47.05663 | 36892 ft | 541 kts | 97° |
| 2026-04-24 15:54 | 23.50061 | 47.13812 | 36895 ft | 541 kts | 97° |
| 2026-04-24 15:55 | 23.49280 | 47.21974 | 36893 ft | 542 kts | 97° |
| 2026-04-24 15:55 | 23.48495 | 47.30133 | 36903 ft | 542 kts | 97° |
| 2026-04-24 15:56 | 23.47705 | 47.38306 | 36898 ft | 542 kts | 97° |
| 2026-04-24 15:56 | 23.46910 | 47.46477 | 36898 ft | 542 kts | 97° |
| 2026-04-24 15:57 | 23.46113 | 47.54640 | 36896 ft | 542 kts | 97° |
| 2026-04-24 15:57 | 23.45323 | 47.62751 | 36893 ft | 542 kts | 97° |
| 2026-04-24 15:58 | 23.44527 | 47.70903 | 36891 ft | 541 kts | 97° |
| 2026-04-24 15:58 | 23.43727 | 47.79044 | 36890 ft | 541 kts | 97° |
| 2026-04-24 15:59 | 23.42923 | 47.87179 | 36886 ft | 540 kts | 97° |
| 2026-04-24 15:59 | 23.42114 | 47.95309 | 36885 ft | 540 kts | 97° |
| 2026-04-24 16:00 | 23.41303 | 48.03428 | 36886 ft | 539 kts | 97° |
| 2026-04-24 16:00 | 23.40487 | 48.11547 | 36882 ft | 539 kts | 97° |
| 2026-04-24 16:01 | 23.39668 | 48.19662 | 36861 ft | 540 kts | 97° |
| 2026-04-24 16:01 | 23.38829 | 48.27765 | 36876 ft | 539 kts | 100° |
| 2026-04-24 16:02 | 23.37283 | 48.34307 | 36886 ft | 535 kts | 113° |
| 2026-04-24 16:02 | 23.34040 | 48.41522 | 36877 ft | 528 kts | 127° |
| 2026-04-24 16:03 | 23.30036 | 48.48233 | 36872 ft | 529 kts | 128° |
| 2026-04-24 16:03 | 23.26009 | 48.54927 | 36871 ft | 530 kts | 127° |
| 2026-04-24 16:04 | 23.22016 | 48.61665 | 36868 ft | 531 kts | 127° |
| 2026-04-24 16:04 | 23.18035 | 48.68438 | 36866 ft | 531 kts | 126° |
| 2026-04-24 16:05 | 23.12064 | 48.78593 | 36862 ft | 532 kts | 127° |
| 2026-04-24 16:06 | 23.06069 | 48.88754 | 36860 ft | 533 kts | 127° |
| 2026-04-24 16:07 | 23.00055 | 48.98923 | 36859 ft | 534 kts | 127° |
| 2026-04-24 16:07 | 22.94036 | 49.09082 | 36855 ft | 534 kts | 127° |
| 2026-04-24 16:08 | 22.88002 | 49.19247 | 36856 ft | 534 kts | 127° |
| 2026-04-24 16:09 | 22.81959 | 49.29406 | 36861 ft | 534 kts | 127° |
| 2026-04-24 16:09 | 22.77927 | 49.36174 | 36858 ft | 535 kts | 127° |
| 2026-04-24 16:11 | 22.67830 | 49.53082 | 36852 ft | 535 kts | 127° |
| 2026-04-24 16:11 | 22.63779 | 49.59850 | 36855 ft | 535 kts | 127° |
| 2026-04-24 16:12 | 22.57698 | 49.69995 | 36857 ft | 536 kts | 127° |
| 2026-04-24 16:13 | 22.51608 | 49.80134 | 36847 ft | 536 kts | 127° |
| 2026-04-24 16:14 | 22.43474 | 49.93646 | 36849 ft | 536 kts | 127° |
| 2026-04-24 16:14 | 22.37358 | 50.03784 | 36856 ft | 537 kts | 127° |
| 2026-04-24 16:15 | 22.31238 | 50.13909 | 36856 ft | 537 kts | 127° |
| 2026-04-24 16:16 | 22.25109 | 50.24030 | 36854 ft | 537 kts | 127° |
| 2026-04-24 16:17 | 22.14873 | 50.40889 | 36866 ft | 544 kts | 126° |